createdAt,value
2022-11-29T00:00:22.692Z,7.25
2022-11-29T00:00:54.192Z,7.21
2022-11-29T00:01:27.209Z,7.20
2022-11-29T00:01:58.740Z,7.19
2022-11-29T00:02:30.294Z,7.21
2022-11-29T00:03:02.139Z,7.21
2022-11-29T00:03:34.201Z,7.21
2022-11-29T00:04:05.761Z,7.23
2022-11-29T00:04:37.432Z,7.20
2022-11-29T00:05:09.169Z,7.18
2022-11-29T00:05:40.651Z,7.17
2022-11-29T00:06:17.685Z,7.16
2022-11-29T00:06:49.130Z,7.14
2022-11-29T00:07:20.704Z,7.16
2022-11-29T00:07:52.294Z,7.15
2022-11-29T00:08:24.084Z,7.15
2022-11-29T00:08:57.386Z,7.16
2022-11-29T00:09:28.816Z,7.16
2022-11-29T00:10:00.392Z,7.16
2022-11-29T00:10:31.837Z,7.15
2022-11-29T00:11:12.240Z,7.18
2022-11-29T00:12:02.353Z,7.20
2022-11-29T00:12:33.812Z,7.17
2022-11-29T00:13:05.512Z,7.18
2022-11-29T00:13:37.117Z,7.16
2022-11-29T00:14:11.866Z,7.14
2022-11-29T00:14:43.602Z,7.17
2022-11-29T00:15:15.966Z,7.16
2022-11-29T00:15:47.432Z,7.14
2022-11-29T00:16:18.923Z,7.16
2022-11-29T00:16:52.983Z,7.16
2022-11-29T00:17:24.501Z,7.16
2022-11-29T00:17:55.970Z,7.15
2022-11-29T00:18:27.437Z,7.15
2022-11-29T00:18:58.897Z,7.13
2022-11-29T00:19:32.142Z,7.15
2022-11-29T00:20:04.032Z,7.15
2022-11-29T00:20:35.881Z,7.13
2022-11-29T00:21:08.412Z,7.13
2022-11-29T00:21:39.878Z,7.15
2022-11-29T00:22:11.328Z,7.18
2022-11-29T00:22:42.823Z,7.20
2022-11-29T00:23:14.479Z,7.16
2022-11-29T00:23:46.055Z,7.16
2022-11-29T00:24:17.621Z,7.20
2022-11-29T00:24:49.068Z,7.18
2022-11-29T00:25:20.629Z,7.17
2022-11-29T00:25:52.539Z,7.19
2022-11-29T00:26:24.116Z,7.16
2022-11-29T00:26:55.572Z,7.16
2022-11-29T00:27:27.007Z,7.13
2022-11-29T00:27:58.595Z,7.17
2022-11-29T00:28:30.094Z,7.19
2022-11-29T00:29:01.540Z,7.21
2022-11-29T00:29:33.026Z,7.24
2022-11-29T00:30:05.349Z,7.21
2022-11-29T00:30:36.859Z,7.21
2022-11-29T00:31:17.927Z,7.19
2022-11-29T00:31:49.437Z,7.17
2022-11-29T00:32:20.880Z,7.17
2022-11-29T00:32:52.526Z,7.18
2022-11-29T00:33:24.001Z,7.18
2022-11-29T00:33:56.855Z,7.17
2022-11-29T00:34:28.551Z,7.18
2022-11-29T00:35:02.022Z,7.19
2022-11-29T00:35:35.637Z,7.18
2022-11-29T00:36:07.529Z,7.18
2022-11-29T00:36:39.950Z,7.18
2022-11-29T00:37:11.552Z,7.16
2022-11-29T00:37:42.988Z,7.16
2022-11-29T00:38:14.444Z,7.18
2022-11-29T00:38:46.281Z,7.17
2022-11-29T00:39:17.838Z,7.20
2022-11-29T00:39:49.274Z,7.19
2022-11-29T00:40:20.704Z,7.19
2022-11-29T00:40:52.633Z,7.19
2022-11-29T00:41:24.360Z,7.19
2022-11-29T00:41:55.942Z,7.20
2022-11-29T00:42:27.420Z,7.21
2022-11-29T00:42:58.869Z,7.22
2022-11-29T00:43:30.320Z,7.23
2022-11-29T00:44:01.803Z,7.23
2022-11-29T00:44:33.410Z,7.22
2022-11-29T00:45:05.382Z,7.22
2022-11-29T00:45:37.095Z,7.23
2022-11-29T00:46:09.398Z,7.25
2022-11-29T00:46:40.934Z,7.29
2022-11-29T00:47:12.471Z,7.27
2022-11-29T00:47:43.972Z,7.25
2022-11-29T00:48:15.433Z,7.25
2022-11-29T00:48:47.092Z,7.25
2022-11-29T00:49:18.557Z,7.26
2022-11-29T00:49:50.061Z,7.27
2022-11-29T00:50:21.537Z,7.29
2022-11-29T00:50:53.273Z,7.29
2022-11-29T00:51:24.756Z,7.31
2022-11-29T00:51:56.214Z,7.32
2022-11-29T00:52:27.834Z,7.32
2022-11-29T00:52:59.283Z,7.28
2022-11-29T00:53:30.822Z,7.27
2022-11-29T00:54:02.418Z,7.27
2022-11-29T00:54:33.919Z,7.25
2022-11-29T00:55:05.929Z,7.27
2022-11-29T00:55:37.433Z,7.27
2022-11-29T00:56:09.308Z,7.28
2022-11-29T00:56:40.852Z,7.29
2022-11-29T00:57:12.297Z,7.25
2022-11-29T00:57:43.809Z,7.23
2022-11-29T00:58:15.305Z,7.24
2022-11-29T00:58:48.516Z,7.21
2022-11-29T00:59:20.069Z,7.22
2022-11-29T00:59:51.529Z,7.22
2022-11-29T01:00:23.175Z,7.19
2022-11-29T01:00:54.871Z,7.19
2022-11-29T01:01:26.627Z,7.20
2022-11-29T01:01:58.160Z,7.22
2022-11-29T01:02:29.843Z,7.21
2022-11-29T01:03:01.993Z,7.21
2022-11-29T01:03:33.604Z,7.17
2022-11-29T01:04:05.295Z,7.17
2022-11-29T01:04:36.754Z,7.18
2022-11-29T01:05:08.470Z,7.17
2022-11-29T01:05:40.335Z,7.17
2022-11-29T01:06:14.125Z,7.15
2022-11-29T01:06:45.778Z,7.16
2022-11-29T01:07:17.407Z,7.15
2022-11-29T01:07:49.062Z,7.15
2022-11-29T01:08:20.656Z,7.15
2022-11-29T01:08:52.145Z,7.17
2022-11-29T01:09:23.769Z,7.19
2022-11-29T01:09:55.192Z,7.19
2022-11-29T01:10:27.080Z,7.16
2022-11-29T01:11:11.330Z,7.15
2022-11-29T01:11:42.936Z,7.16
2022-11-29T01:12:14.463Z,7.16
2022-11-29T01:12:45.942Z,7.16
2022-11-29T01:13:17.619Z,7.17
2022-11-29T01:13:51.006Z,7.15
2022-11-29T01:14:22.722Z,7.13
2022-11-29T01:14:54.264Z,7.18
2022-11-29T01:15:25.874Z,7.16
2022-11-29T01:15:58.201Z,7.11
2022-11-29T01:16:31.068Z,7.11
2022-11-29T01:17:02.759Z,7.11
2022-11-29T01:17:39.121Z,7.11
2022-11-29T01:18:10.608Z,7.12
2022-11-29T01:18:42.904Z,7.13
2022-11-29T01:19:14.361Z,7.10
2022-11-29T01:19:50.652Z,7.09
2022-11-29T01:20:22.586Z,7.06
2022-11-29T01:20:58.325Z,7.06
2022-11-29T01:21:29.972Z,7.07
2022-11-29T01:22:01.435Z,7.10
2022-11-29T01:22:34.439Z,7.05
2022-11-29T01:23:05.944Z,7.06
2022-11-29T01:23:38.090Z,7.05
2022-11-29T01:24:09.625Z,7.06
2022-11-29T01:24:41.477Z,7.05
2022-11-29T01:25:13.609Z,7.05
2022-11-29T01:25:45.065Z,7.04
2022-11-29T01:26:19.215Z,7.02
2022-11-29T01:26:50.657Z,7.03
2022-11-29T01:27:22.233Z,7.04
2022-11-29T01:27:54.388Z,7.08
2022-11-29T01:28:26.492Z,7.06
2022-11-29T01:28:58.662Z,7.05
2022-11-29T01:29:30.144Z,7.05
2022-11-29T01:30:02.471Z,7.13
2022-11-29T01:30:34.179Z,7.07
2022-11-29T01:31:10.816Z,7.06
2022-11-29T01:31:42.332Z,7.03
2022-11-29T01:32:13.936Z,7.08
2022-11-29T01:32:45.399Z,7.08
2022-11-29T01:33:16.905Z,7.06
2022-11-29T01:33:48.526Z,7.07
2022-11-29T01:34:19.977Z,7.07
2022-11-29T01:34:51.446Z,7.07
2022-11-29T01:35:22.976Z,7.05
2022-11-29T01:35:54.960Z,7.05
2022-11-29T01:36:27.014Z,7.05
2022-11-29T01:36:58.494Z,7.07
2022-11-29T01:37:30.051Z,7.08
2022-11-29T01:38:01.549Z,7.08
2022-11-29T01:38:33.165Z,7.08
2022-11-29T01:39:05.649Z,7.07
2022-11-29T01:39:37.349Z,7.11
2022-11-29T01:40:09.195Z,7.08
2022-11-29T01:40:40.693Z,7.08
2022-11-29T01:41:15.789Z,7.13
2022-11-29T01:41:47.296Z,7.14
2022-11-29T01:42:18.928Z,7.18
2022-11-29T01:42:50.405Z,7.18
2022-11-29T01:43:22.465Z,7.17
2022-11-29T01:43:55.160Z,7.15
2022-11-29T01:44:26.759Z,7.12
2022-11-29T01:45:23.004Z,7.14
2022-11-29T01:45:55.085Z,7.17
2022-11-29T01:46:29.245Z,7.19
2022-11-29T01:47:00.860Z,7.20
2022-11-29T01:47:32.401Z,7.21
2022-11-29T01:48:04.346Z,7.19
2022-11-29T01:48:35.809Z,7.20
2022-11-29T01:49:16.254Z,7.20
2022-11-29T01:49:48.694Z,7.19
2022-11-29T01:50:20.518Z,7.19
2022-11-29T01:50:54.524Z,7.19
2022-11-29T01:51:27.165Z,7.22
2022-11-29T01:52:00.363Z,7.19
2022-11-29T01:52:32.918Z,7.20
2022-11-29T01:53:04.869Z,7.20
2022-11-29T01:53:36.324Z,7.20
2022-11-29T01:54:09.167Z,7.18
2022-11-29T01:54:46.873Z,7.20
2022-11-29T01:55:19.016Z,7.17
2022-11-29T01:55:54.126Z,7.13
2022-11-29T01:56:25.974Z,7.15
2022-11-29T01:56:58.821Z,7.16
2022-11-29T01:57:31.078Z,7.18
2022-11-29T01:58:04.084Z,7.17
2022-11-29T01:58:35.913Z,7.17
2022-11-29T01:59:10.167Z,7.18
2022-11-29T01:59:46.278Z,7.17
2022-11-29T02:00:19.873Z,7.19
2022-11-29T02:00:51.336Z,7.20
2022-11-29T02:01:23.301Z,7.13
2022-11-29T02:02:06.085Z,7.13
2022-11-29T02:02:52.458Z,7.11
2022-11-29T02:03:24.021Z,7.10
2022-11-29T02:03:55.713Z,7.12
2022-11-29T02:04:27.233Z,7.21
2022-11-29T02:04:59.809Z,7.17
2022-11-29T02:05:32.718Z,7.18
2022-11-29T02:06:05.178Z,7.12
2022-11-29T02:06:37.203Z,7.11
2022-11-29T02:07:09.159Z,7.10
2022-11-29T02:07:43.081Z,7.11
2022-11-29T02:08:16.926Z,7.12
2022-11-29T02:08:48.389Z,7.09
2022-11-29T02:09:21.797Z,7.08
2022-11-29T02:09:53.246Z,7.12
2022-11-29T02:10:49.647Z,7.12
2022-11-29T02:11:46.341Z,7.10
2022-11-29T02:12:26.755Z,7.06
2022-11-29T02:13:04.965Z,7.04
2022-11-29T02:14:10.504Z,7.04
2022-11-29T02:15:06.350Z,7.02
2022-11-29T02:15:46.701Z,7.03
2022-11-29T02:16:33.217Z,7.00
2022-11-29T02:17:13.895Z,6.99
2022-11-29T02:18:14.797Z,6.98
2022-11-29T02:18:55.828Z,6.99
2022-11-29T02:19:27.203Z,6.99
2022-11-29T02:20:06.140Z,7.00
2022-11-29T02:20:42.718Z,7.01
2022-11-29T02:21:41.970Z,6.98
2022-11-29T02:22:19.480Z,7.00
2022-11-29T02:22:57.618Z,7.04
2022-11-29T02:23:39.445Z,7.08
2022-11-29T02:24:29.476Z,7.12
2022-11-29T02:25:24.623Z,7.16
2022-11-29T02:26:23.925Z,7.10
2022-11-29T02:27:04.509Z,7.06
2022-11-29T02:27:51.150Z,7.15
2022-11-29T02:28:52.043Z,7.11
2022-11-29T02:29:53.853Z,7.11
2022-11-29T02:30:25.257Z,7.09
2022-11-29T02:30:59.150Z,7.10
2022-11-29T02:31:58.927Z,7.15
2022-11-29T02:33:02.269Z,7.13
2022-11-29T02:33:47.109Z,7.05
2022-11-29T02:34:33.626Z,7.03
2022-11-29T02:35:05.113Z,7.00
2022-11-29T02:35:48.822Z,6.97
2022-11-29T02:36:32.562Z,6.98
2022-11-29T02:37:22.641Z,6.97
2022-11-29T02:38:23.290Z,6.98
2022-11-29T02:39:09.949Z,7.02
2022-11-29T02:40:04.880Z,7.04
2022-11-29T02:40:51.370Z,7.00
2022-11-29T02:41:59.744Z,7.01
2022-11-29T02:42:56.515Z,7.06
2022-11-29T02:43:57.981Z,7.03
2022-11-29T02:44:55.998Z,7.07
2022-11-29T02:45:36.196Z,7.11
2022-11-29T02:46:07.642Z,7.02
2022-11-29T02:46:49.176Z,7.04
2022-11-29T02:47:36.965Z,7.09
2022-11-29T02:48:27.591Z,7.07
2022-11-29T02:49:31.737Z,7.03
2022-11-29T02:50:21.453Z,7.06
2022-11-29T02:51:13.709Z,7.01
2022-11-29T02:51:55.123Z,6.92
2022-11-29T02:52:32.707Z,6.98
2022-11-29T02:53:11.657Z,6.98
2022-11-29T02:54:13.881Z,6.95
2022-11-29T02:54:50.386Z,6.95
2022-11-29T02:55:35.018Z,6.95
2022-11-29T02:56:34.428Z,6.91
2022-11-29T02:57:23.185Z,6.93
2022-11-29T02:58:19.471Z,6.94
2022-11-29T02:59:11.712Z,7.03
2022-11-29T02:59:54.858Z,6.94
2022-11-29T03:00:26.630Z,6.93
2022-11-29T03:01:05.404Z,6.94
2022-11-29T03:01:41.897Z,6.95
2022-11-29T03:02:39.966Z,6.97
2022-11-29T03:03:18.404Z,7.03
2022-11-29T03:03:56.456Z,7.10
2022-11-29T03:05:05.390Z,6.98
2022-11-29T03:06:02.084Z,6.98
2022-11-29T03:06:52.118Z,6.99
2022-11-29T03:07:52.965Z,6.94
2022-11-29T03:08:32.254Z,6.92
2022-11-29T03:09:22.031Z,6.91
2022-11-29T03:10:08.146Z,6.92
2022-11-29T03:11:17.239Z,6.94
2022-11-29T03:11:55.968Z,6.92
2022-11-29T03:12:38.438Z,6.88
2022-11-29T03:13:20.570Z,6.92
2022-11-29T03:14:14.685Z,6.88
2022-11-29T03:15:12.453Z,6.87
2022-11-29T03:15:59.167Z,6.89
2022-11-29T03:17:12.993Z,6.89
2022-11-29T03:18:10.612Z,6.97
2022-11-29T03:18:56.276Z,6.88
2022-11-29T03:19:55.190Z,6.91
2022-11-29T03:20:36.177Z,6.95
2022-11-29T03:21:09.012Z,6.90
2022-11-29T03:22:03.575Z,6.87
2022-11-29T03:22:47.933Z,6.94
2022-11-29T03:23:32.229Z,6.96
2022-11-29T03:24:08.932Z,6.93
2022-11-29T03:24:54.951Z,7.00
2022-11-29T03:25:38.601Z,6.99
2022-11-29T03:26:24.890Z,6.93
2022-11-29T03:27:02.114Z,6.90
2022-11-29T03:28:01.468Z,6.88
2022-11-29T03:28:37.433Z,6.90
2022-11-29T03:29:29.755Z,6.90
2022-11-29T03:30:04.513Z,6.90
2022-11-29T03:30:38.376Z,6.92
2022-11-29T03:31:18.557Z,6.97
2022-11-29T03:32:07.497Z,6.93
2022-11-29T03:32:47.770Z,6.87
2022-11-29T03:33:35.969Z,6.86
2022-11-29T03:34:45.851Z,6.94
2022-11-29T03:35:35.976Z,6.98
2022-11-29T03:36:07.671Z,7.12
2022-11-29T03:36:45.557Z,7.12
2022-11-29T03:37:43.130Z,7.06
2022-11-29T03:38:43.112Z,7.07
2022-11-29T03:39:19.542Z,7.08
2022-11-29T03:39:53.480Z,7.06
2022-11-29T03:40:46.777Z,7.03
2022-11-29T03:41:25.768Z,7.02
2022-11-29T03:42:03.855Z,6.96
2022-11-29T03:42:43.249Z,6.91
2022-11-29T03:43:30.774Z,6.84
2022-11-29T03:44:11.518Z,6.88
2022-11-29T03:44:56.408Z,6.89
2022-11-29T03:45:33.837Z,6.88
2022-11-29T03:46:14.724Z,6.90
2022-11-29T03:47:09.093Z,6.97
2022-11-29T03:47:49.219Z,7.06
2022-11-29T03:49:01.731Z,6.93
2022-11-29T03:49:38.015Z,6.92
2022-11-29T03:50:20.694Z,6.88
2022-11-29T03:50:55.350Z,6.90
2022-11-29T03:51:51.773Z,6.93
2022-11-29T03:52:29.389Z,6.86
2022-11-29T03:53:14.853Z,6.80
2022-11-29T03:53:52.157Z,6.89
2022-11-29T03:54:32.650Z,6.98
2022-11-29T03:55:23.063Z,6.93
2022-11-29T03:56:00.504Z,6.89
2022-11-29T03:56:34.555Z,6.89
2022-11-29T03:57:06.972Z,6.89
2022-11-29T03:57:50.214Z,6.88
2022-11-29T03:58:32.589Z,6.91
2022-11-29T03:59:12.114Z,6.94
2022-11-29T03:59:59.961Z,6.93
2022-11-29T04:00:42.986Z,6.89
2022-11-29T04:01:50.113Z,6.92
2022-11-29T04:03:09.621Z,6.85
2022-11-29T04:04:00.471Z,6.92
2022-11-29T04:04:50.364Z,6.89
2022-11-29T04:05:21.860Z,6.90
2022-11-29T04:06:01.147Z,6.88
2022-11-29T04:07:00.060Z,6.86
2022-11-29T04:07:47.159Z,6.87
2022-11-29T04:08:43.085Z,6.88
2022-11-29T04:09:46.749Z,6.85
2022-11-29T04:10:27.192Z,6.83
2022-11-29T04:11:55.820Z,6.82
2022-11-29T04:13:02.463Z,6.80
2022-11-29T04:14:11.277Z,6.80
2022-11-29T04:15:04.238Z,6.83
2022-11-29T04:15:44.634Z,6.83
2022-11-29T04:16:32.901Z,6.78
2022-11-29T04:17:22.198Z,6.79
2022-11-29T04:18:20.458Z,6.75
2022-11-29T04:19:15.740Z,6.75
2022-11-29T04:20:24.789Z,6.78
2022-11-29T04:21:14.818Z,6.87
2022-11-29T04:22:15.480Z,6.87
2022-11-29T04:23:18.645Z,6.80
2022-11-29T04:24:25.652Z,6.85
2022-11-29T04:25:21.882Z,6.80
2022-11-29T04:26:24.061Z,6.72
2022-11-29T04:27:13.739Z,6.76
2022-11-29T04:27:49.522Z,6.82
2022-11-29T04:28:45.090Z,6.77
2022-11-29T04:29:26.858Z,6.76
2022-11-29T04:30:07.743Z,6.73
2022-11-29T04:31:06.909Z,6.70
2022-11-29T04:32:03.448Z,6.69
2022-11-29T04:33:17.150Z,6.70
2022-11-29T04:34:03.767Z,6.77
2022-11-29T04:34:58.855Z,6.79
2022-11-29T04:36:05.713Z,6.82
2022-11-29T04:36:54.099Z,6.73
2022-11-29T04:37:31.642Z,6.69
2022-11-29T04:38:05.748Z,6.69
2022-11-29T04:38:42.838Z,6.65
2022-11-29T04:39:36.481Z,6.62
2022-11-29T04:40:32.564Z,6.60
2022-11-29T04:41:20.356Z,6.73
2022-11-29T04:42:25.861Z,6.71
2022-11-29T04:43:34.549Z,6.56
2022-11-29T04:44:09.383Z,6.61
2022-11-29T04:44:58.914Z,6.59
2022-11-29T04:45:48.753Z,6.63
2022-11-29T04:46:46.679Z,6.64
2022-11-29T04:47:38.497Z,6.60
2022-11-29T04:48:28.050Z,6.61
2022-11-29T04:49:11.215Z,6.70
2022-11-29T04:50:18.334Z,6.80
2022-11-29T04:51:33.977Z,6.90
2022-11-29T04:52:24.821Z,6.93
2022-11-29T04:53:08.811Z,6.96
2022-11-29T04:53:49.172Z,6.91
2022-11-29T04:54:48.699Z,6.86
2022-11-29T04:55:43.128Z,7.06
2022-11-29T04:56:43.309Z,7.12
2022-11-29T04:57:42.130Z,7.01
2022-11-29T04:58:29.615Z,6.90
2022-11-29T04:59:19.464Z,6.77
2022-11-29T04:59:57.251Z,6.73
2022-11-29T05:00:31.585Z,6.67
2022-11-29T05:01:23.462Z,6.71
2022-11-29T05:02:13.341Z,6.67
2022-11-29T05:03:02.096Z,6.70
2022-11-29T05:03:41.853Z,6.66
2022-11-29T05:04:28.431Z,6.65
2022-11-29T05:05:13.997Z,6.68
2022-11-29T05:05:51.570Z,6.69
2022-11-29T05:06:29.803Z,6.69
2022-11-29T05:07:27.776Z,6.65
2022-11-29T05:08:20.877Z,6.62
2022-11-29T05:09:22.216Z,6.66
2022-11-29T05:09:56.617Z,6.67
2022-11-29T05:10:52.934Z,6.70
2022-11-29T05:11:43.050Z,6.71
2022-11-29T05:12:18.643Z,6.72
2022-11-29T05:13:03.233Z,6.77
2022-11-29T05:13:56.045Z,6.71
2022-11-29T05:14:49.820Z,6.67
2022-11-29T05:15:29.987Z,6.64
2022-11-29T05:16:21.793Z,6.64
2022-11-29T05:17:20.220Z,6.67
2022-11-29T05:18:10.302Z,6.67
2022-11-29T05:19:00.367Z,6.64
2022-11-29T05:20:05.895Z,6.70
2022-11-29T05:20:49.634Z,6.64
2022-11-29T05:21:36.465Z,6.65
2022-11-29T05:22:29.142Z,6.66
2022-11-29T05:23:12.276Z,6.59
2022-11-29T05:24:20.524Z,6.57
2022-11-29T05:25:14.087Z,6.59
2022-11-29T05:25:54.480Z,6.59
2022-11-29T05:26:27.448Z,6.63
2022-11-29T05:27:25.697Z,6.61
2022-11-29T05:28:10.252Z,6.57
2022-11-29T05:29:03.547Z,6.55
2022-11-29T05:29:43.398Z,6.54
2022-11-29T05:30:20.865Z,6.54
2022-11-29T05:31:23.078Z,6.58
2022-11-29T05:32:21.520Z,6.50
2022-11-29T05:33:14.047Z,6.50
2022-11-29T05:33:59.374Z,6.51
2022-11-29T05:34:43.680Z,6.48
2022-11-29T05:35:37.181Z,6.69
2022-11-29T05:36:29.578Z,6.54
2022-11-29T05:37:25.926Z,6.53
2022-11-29T05:37:57.527Z,6.49
2022-11-29T05:39:03.634Z,6.46
2022-11-29T05:39:42.134Z,6.48
2022-11-29T05:40:13.773Z,6.49
2022-11-29T05:41:19.342Z,6.51
2022-11-29T05:42:02.627Z,6.44
2022-11-29T05:42:45.875Z,6.45
2022-11-29T05:43:52.806Z,6.41
2022-11-29T05:44:43.456Z,6.39
2022-11-29T05:45:44.437Z,6.44
2022-11-29T05:46:30.208Z,6.39
2022-11-29T05:47:03.428Z,6.42
2022-11-29T05:47:51.850Z,6.40
2022-11-29T05:48:45.410Z,6.44
2022-11-29T05:49:18.886Z,6.48
2022-11-29T05:50:07.586Z,6.51
2022-11-29T05:50:55.129Z,6.50
2022-11-29T05:51:29.593Z,6.54
2022-11-29T05:52:22.571Z,6.44
2022-11-29T05:53:03.062Z,6.45
2022-11-29T05:53:43.197Z,6.45
2022-11-29T05:54:28.215Z,6.48
2022-11-29T05:55:16.849Z,6.48
2022-11-29T05:56:12.777Z,6.44
2022-11-29T05:57:01.147Z,6.46
2022-11-29T05:57:54.012Z,6.48
2022-11-29T05:58:43.793Z,6.49
2022-11-29T05:59:22.219Z,6.51
2022-11-29T05:59:53.997Z,6.49
2022-11-29T06:00:29.265Z,6.48
2022-11-29T06:01:16.691Z,6.39
2022-11-29T06:02:15.742Z,6.41
2022-11-29T06:03:10.392Z,6.44
2022-11-29T06:04:04.473Z,6.45
2022-11-29T06:04:57.687Z,6.45
2022-11-29T06:05:37.440Z,6.48
2022-11-29T06:06:16.750Z,6.48
2022-11-29T06:06:57.222Z,6.44
2022-11-29T06:07:31.531Z,6.40
2022-11-29T06:08:26.007Z,6.42
2022-11-29T06:09:05.903Z,6.36
2022-11-29T06:09:49.947Z,6.34
2022-11-29T06:10:25.024Z,6.36
2022-11-29T06:11:14.401Z,6.35
2022-11-29T06:11:49.282Z,6.30
2022-11-29T06:12:22.869Z,6.39
2022-11-29T06:13:10.893Z,6.37
2022-11-29T06:14:01.443Z,6.37
2022-11-29T06:14:41.821Z,6.46
2022-11-29T06:15:19.248Z,6.42
2022-11-29T06:16:17.803Z,6.43
2022-11-29T06:17:13.843Z,6.45
2022-11-29T06:18:27.401Z,6.44
2022-11-29T06:19:23.784Z,6.46
2022-11-29T06:20:13.058Z,6.42
2022-11-29T06:21:14.742Z,6.42
2022-11-29T06:21:57.971Z,6.50
2022-11-29T06:23:03.135Z,6.50
2022-11-29T06:23:49.522Z,6.45
2022-11-29T06:24:37.791Z,6.46
2022-11-29T06:25:37.642Z,6.41
2022-11-29T06:26:44.825Z,6.47
2022-11-29T06:27:24.923Z,6.45
2022-11-29T06:28:17.801Z,6.46
2022-11-29T06:29:07.813Z,6.44
2022-11-29T06:29:52.612Z,6.43
2022-11-29T06:30:27.756Z,6.42
2022-11-29T06:31:03.473Z,6.41
2022-11-29T06:31:44.032Z,6.37
2022-11-29T06:32:40.258Z,6.39
2022-11-29T06:33:29.607Z,6.42
2022-11-29T06:34:07.393Z,6.43
2022-11-29T06:34:48.598Z,6.47
2022-11-29T06:35:48.797Z,6.46
2022-11-29T06:36:31.942Z,6.49
2022-11-29T06:37:20.345Z,6.55
2022-11-29T06:37:53.888Z,6.56
2022-11-29T06:38:28.242Z,6.48
2022-11-29T06:38:59.865Z,6.47
2022-11-29T06:39:31.559Z,6.50
2022-11-29T06:40:04.408Z,6.51
2022-11-29T06:40:36.072Z,6.53
2022-11-29T06:41:14.725Z,6.55
2022-11-29T06:41:47.095Z,6.48
2022-11-29T06:42:18.644Z,6.42
2022-11-29T06:42:50.361Z,6.50
2022-11-29T06:43:22.052Z,6.47
2022-11-29T06:43:53.825Z,6.45
2022-11-29T06:44:25.618Z,6.44
2022-11-29T06:44:57.208Z,6.47
2022-11-29T06:45:28.956Z,6.47
2022-11-29T06:46:14.614Z,6.43
2022-11-29T06:46:53.528Z,6.46
2022-11-29T06:47:30.812Z,6.48
2022-11-29T06:48:04.576Z,6.49
2022-11-29T06:49:02.482Z,6.48
2022-11-29T06:49:40.029Z,6.50
2022-11-29T06:50:20.059Z,6.48
2022-11-29T06:51:06.026Z,6.41
2022-11-29T06:52:02.445Z,6.46
2022-11-29T06:53:25.237Z,6.45
2022-11-29T06:54:05.603Z,6.40
2022-11-29T06:54:52.115Z,6.35
2022-11-29T06:55:57.684Z,6.46
2022-11-29T06:56:36.157Z,6.45
2022-11-29T06:57:24.826Z,6.49
2022-11-29T06:58:12.693Z,6.43
2022-11-29T06:58:52.024Z,6.40
2022-11-29T06:59:35.742Z,6.40
2022-11-29T07:00:20.690Z,6.41
2022-11-29T07:01:14.443Z,6.41
2022-11-29T07:02:04.323Z,6.47
2022-11-29T07:02:55.053Z,6.54
2022-11-29T07:03:32.981Z,6.49
2022-11-29T07:04:28.933Z,6.43
2022-11-29T07:05:15.685Z,6.47
2022-11-29T07:05:47.476Z,6.48
2022-11-29T07:06:30.111Z,6.44
2022-11-29T07:07:01.889Z,6.43
2022-11-29T07:07:35.132Z,6.46
2022-11-29T07:08:12.221Z,6.45
2022-11-29T07:08:43.893Z,6.44
2022-11-29T07:09:18.420Z,6.45
2022-11-29T07:09:51.706Z,6.47
2022-11-29T07:10:24.025Z,6.47
2022-11-29T07:10:56.113Z,6.50
2022-11-29T07:11:28.157Z,6.49
2022-11-29T07:12:00.168Z,6.53
2022-11-29T07:12:31.922Z,6.53
2022-11-29T07:13:03.724Z,6.51
2022-11-29T07:13:35.566Z,6.55
2022-11-29T07:14:07.434Z,6.55
2022-11-29T07:14:39.208Z,6.55
2022-11-29T07:15:18.581Z,6.49
2022-11-29T07:16:33.913Z,6.46
2022-11-29T07:17:24.073Z,6.52
2022-11-29T07:18:02.353Z,6.59
2022-11-29T07:18:48.657Z,6.59
2022-11-29T07:19:43.880Z,6.63
2022-11-29T07:20:47.549Z,6.62
2022-11-29T07:21:39.760Z,6.63
2022-11-29T07:22:33.602Z,6.51
2022-11-29T07:23:19.544Z,6.53
2022-11-29T07:24:02.505Z,6.54
2022-11-29T07:24:49.133Z,6.55
2022-11-29T07:25:26.308Z,6.55
2022-11-29T07:26:16.547Z,6.58
2022-11-29T07:26:59.697Z,6.57
2022-11-29T07:27:37.034Z,6.48
2022-11-29T07:28:35.230Z,6.49
2022-11-29T07:29:24.688Z,6.50
2022-11-29T07:30:05.208Z,6.52
2022-11-29T07:31:05.950Z,6.50
2022-11-29T07:31:52.426Z,6.56
2022-11-29T07:32:47.306Z,6.53
2022-11-29T07:34:03.418Z,6.41
2022-11-29T07:34:59.405Z,6.51
2022-11-29T07:35:51.467Z,6.63
2022-11-29T07:36:45.671Z,6.54
2022-11-29T07:37:22.743Z,6.61
2022-11-29T07:38:11.929Z,6.58
2022-11-29T07:38:52.416Z,6.54
2022-11-29T07:39:41.988Z,6.59
2022-11-29T07:40:16.155Z,6.67
2022-11-29T07:40:53.821Z,6.61
2022-11-29T07:41:40.482Z,6.62
2022-11-29T07:42:34.275Z,6.61
2022-11-29T07:43:27.200Z,6.49
2022-11-29T07:44:34.953Z,6.49
2022-11-29T07:45:21.711Z,6.52
2022-11-29T07:45:54.610Z,6.53
2022-11-29T07:46:28.456Z,6.55
2022-11-29T07:46:59.977Z,6.59
2022-11-29T07:47:35.672Z,6.56
2022-11-29T07:48:10.929Z,6.63
2022-11-29T07:48:42.609Z,6.63
2022-11-29T07:49:14.085Z,6.68
2022-11-29T07:49:45.569Z,6.67
2022-11-29T07:50:17.296Z,6.63
2022-11-29T07:50:48.764Z,6.59
2022-11-29T07:51:20.271Z,6.62
2022-11-29T07:51:51.933Z,6.59
2022-11-29T07:52:23.395Z,6.55
2022-11-29T07:52:56.035Z,6.54
2022-11-29T07:53:28.916Z,6.52
2022-11-29T07:54:00.377Z,6.53
2022-11-29T07:54:31.845Z,6.55
2022-11-29T07:55:05.025Z,6.58
2022-11-29T07:55:37.330Z,6.62
2022-11-29T07:56:12.568Z,6.61
2022-11-29T07:56:44.205Z,6.62
2022-11-29T07:57:15.696Z,6.58
2022-11-29T07:57:48.077Z,6.56
2022-11-29T07:58:19.632Z,6.55
2022-11-29T07:58:51.151Z,6.57
2022-11-29T07:59:22.787Z,6.59
2022-11-29T07:59:54.253Z,6.58
2022-11-29T08:00:25.783Z,6.59
2022-11-29T08:00:57.620Z,6.62
2022-11-29T08:01:29.352Z,6.61
2022-11-29T08:02:00.906Z,6.65
2022-11-29T08:02:32.629Z,6.68
2022-11-29T08:03:04.747Z,6.72
2022-11-29T08:03:36.348Z,6.73
2022-11-29T08:04:08.513Z,6.74
2022-11-29T08:04:44.458Z,6.76
2022-11-29T08:05:16.589Z,6.78
2022-11-29T08:05:48.242Z,6.77
2022-11-29T08:06:26.495Z,6.75
2022-11-29T08:06:59.628Z,6.77
2022-11-29T08:07:31.261Z,6.71
2022-11-29T08:08:03.316Z,6.72
2022-11-29T08:08:37.867Z,6.70
2022-11-29T08:09:13.793Z,6.76
2022-11-29T08:09:45.593Z,6.75
2022-11-29T08:10:17.493Z,6.77
2022-11-29T08:10:48.984Z,6.73
2022-11-29T08:11:20.588Z,6.77
2022-11-29T08:11:52.656Z,6.81
2022-11-29T08:12:24.188Z,6.85
2022-11-29T08:12:55.654Z,6.84
2022-11-29T08:13:27.119Z,6.84
2022-11-29T08:14:00.210Z,6.85
2022-11-29T08:14:33.300Z,6.89
2022-11-29T08:15:05.402Z,6.88
2022-11-29T08:15:36.976Z,6.80
2022-11-29T08:16:08.644Z,6.85
2022-11-29T08:16:40.146Z,6.89
2022-11-29T08:17:11.650Z,6.90
2022-11-29T08:17:43.248Z,6.93
2022-11-29T08:18:15.876Z,6.91
2022-11-29T08:18:47.326Z,6.86
2022-11-29T08:19:18.924Z,6.82
2022-11-29T08:19:50.450Z,6.88
2022-11-29T08:20:21.901Z,6.86
2022-11-29T08:20:53.775Z,6.94
2022-11-29T08:21:25.250Z,6.91
2022-11-29T08:21:56.751Z,6.91
2022-11-29T08:22:28.232Z,6.97
2022-11-29T08:22:59.889Z,6.92
2022-11-29T08:23:31.368Z,6.97
2022-11-29T08:24:02.873Z,6.99
2022-11-29T08:24:34.324Z,7.00
2022-11-29T08:25:07.240Z,7.00
2022-11-29T08:25:39.127Z,7.01
2022-11-29T08:26:10.628Z,6.95
2022-11-29T08:26:42.096Z,6.83
2022-11-29T08:27:13.858Z,6.85
2022-11-29T08:27:45.304Z,6.85
2022-11-29T08:28:17.098Z,6.90
2022-11-29T08:28:52.792Z,6.93
2022-11-29T08:29:24.236Z,6.92
2022-11-29T08:29:55.681Z,6.92
2022-11-29T08:30:27.193Z,6.92
2022-11-29T08:31:07.921Z,6.88
2022-11-29T08:31:40.104Z,6.87
2022-11-29T08:32:14.596Z,6.87
2022-11-29T08:32:51.237Z,6.87
2022-11-29T08:33:23.125Z,6.84
2022-11-29T08:33:54.650Z,6.84
2022-11-29T08:34:26.337Z,6.86
2022-11-29T08:34:57.802Z,6.87
2022-11-29T08:35:29.673Z,6.97
2022-11-29T08:36:11.916Z,6.92
2022-11-29T08:36:46.305Z,6.93
2022-11-29T08:37:17.901Z,6.91
2022-11-29T08:37:49.995Z,6.91
2022-11-29T08:38:22.134Z,6.87
2022-11-29T08:39:02.231Z,6.86
2022-11-29T08:39:37.464Z,6.89
2022-11-29T08:40:09.646Z,6.86
2022-11-29T08:40:41.085Z,6.92
2022-11-29T08:41:15.463Z,6.91
2022-11-29T08:41:48.984Z,6.89
2022-11-29T08:42:20.605Z,6.90
2022-11-29T08:42:52.178Z,6.91
2022-11-29T08:43:23.626Z,6.89
2022-11-29T08:43:55.209Z,6.88
2022-11-29T08:44:26.731Z,6.89
2022-11-29T08:44:58.188Z,6.93
2022-11-29T08:45:29.788Z,6.89
2022-11-29T08:46:01.857Z,6.89
2022-11-29T08:46:52.017Z,6.92
2022-11-29T08:47:35.833Z,6.93
2022-11-29T08:48:07.295Z,6.94
2022-11-29T08:48:39.033Z,6.89
2022-11-29T08:49:10.492Z,6.93
2022-11-29T08:50:00.141Z,6.91
2022-11-29T08:50:31.621Z,6.91
2022-11-29T08:51:04.812Z,6.96
2022-11-29T08:51:36.257Z,6.96
2022-11-29T08:52:27.668Z,6.95
2022-11-29T08:53:17.356Z,7.01
2022-11-29T08:53:51.654Z,7.01
2022-11-29T08:54:23.250Z,7.02
2022-11-29T08:54:58.807Z,7.05
2022-11-29T08:55:36.465Z,7.06
2022-11-29T08:56:53.300Z,7.04
2022-11-29T08:57:37.908Z,7.19
2022-11-29T08:58:00.526Z,7.04
2022-11-29T08:58:32.697Z,7.04
2022-11-29T08:59:04.964Z,7.09
2022-11-29T08:59:36.481Z,7.02
2022-11-29T09:00:09.179Z,7.00
2022-11-29T09:00:42.623Z,6.99